sensor_id;sensor_type;location;lat;lon;timestamp;P1;durP1;ratioP1;P2;durP2;ratioP2
35290;SDS011;21411;50.024;19.220;2023-06-24T00:00:36;3.90;;;3.60;;
35290;SDS011;21411;50.024;19.220;2023-06-24T00:03:23;4.50;;;4.20;;
35290;SDS011;21411;50.024;19.220;2023-06-24T00:05:49;5.80;;;3.70;;
35290;SDS011;21411;50.024;19.220;2023-06-24T00:08:16;4.10;;;3.70;;
35290;SDS011;21411;50.024;19.220;2023-06-24T00:10:49;5.00;;;3.70;;
35290;SDS011;21411;50.024;19.220;2023-06-24T00:13:16;3.80;;;3.10;;
35290;SDS011;21411;50.024;19.220;2023-06-24T00:15:43;3.90;;;3.50;;
35290;SDS011;21411;50.024;19.220;2023-06-24T00:18:10;7.00;;;4.30;;
35290;SDS011;21411;50.024;19.220;2023-06-24T00:20:36;7.00;;;5.10;;
35290;SDS011;21411;50.024;19.220;2023-06-24T00:23:03;6.20;;;4.70;;
35290;SDS011;21411;50.024;19.220;2023-06-24T00:25:30;5.80;;;4.00;;
35290;SDS011;21411;50.024;19.220;2023-06-24T00:27:57;5.60;;;3.80;;
35290;SDS011;21411;50.024;19.220;2023-06-24T00:30:25;5.80;;;3.90;;
35290;SDS011;21411;50.024;19.220;2023-06-24T00:32:52;5.30;;;4.40;;
35290;SDS011;21411;50.024;19.220;2023-06-24T00:35:19;5.60;;;3.90;;
35290;SDS011;21411;50.024;19.220;2023-06-24T00:37:46;5.10;;;4.60;;
35290;SDS011;21411;50.024;19.220;2023-06-24T00:40:13;7.80;;;6.30;;
35290;SDS011;21411;50.024;19.220;2023-06-24T00:42:43;7.30;;;6.60;;
35290;SDS011;21411;50.024;19.220;2023-06-24T00:45:10;7.90;;;7.20;;
35290;SDS011;21411;50.024;19.220;2023-06-24T00:47:37;8.70;;;7.80;;
35290;SDS011;21411;50.024;19.220;2023-06-24T00:50:05;8.10;;;6.80;;
35290;SDS011;21411;50.024;19.220;2023-06-24T00:52:32;6.30;;;5.50;;
35290;SDS011;21411;50.024;19.220;2023-06-24T00:54:59;5.20;;;4.70;;
35290;SDS011;21411;50.024;19.220;2023-06-24T00:57:27;6.00;;;4.20;;
35290;SDS011;21411;50.024;19.220;2023-06-24T00:59:55;5.00;;;4.50;;
35290;SDS011;21411;50.024;19.220;2023-06-24T01:02:23;4.20;;;3.80;;
35290;SDS011;21411;50.024;19.220;2023-06-24T01:04:54;3.40;;;3.20;;
35290;SDS011;21411;50.024;19.220;2023-06-24T01:07:21;4.80;;;3.20;;
35290;SDS011;21411;50.024;19.220;2023-06-24T01:09:48;4.40;;;3.80;;
35290;SDS011;21411;50.024;19.220;2023-06-24T01:12:15;4.70;;;3.10;;
35290;SDS011;21411;50.024;19.220;2023-06-24T01:14:41;4.10;;;3.20;;
35290;SDS011;21411;50.024;19.220;2023-06-24T01:19:50;6.80;;;4.00;;
35290;SDS011;21411;50.024;19.220;2023-06-24T01:25:21;3.40;;;3.10;;
35290;SDS011;21411;50.024;19.220;2023-06-24T01:28:33;3.70;;;3.30;;
35290;SDS011;21411;50.024;19.220;2023-06-24T01:36:38;4.40;;;2.90;;
35290;SDS011;21411;50.024;19.220;2023-06-24T01:39:10;4.00;;;3.50;;
35290;SDS011;21411;50.024;19.220;2023-06-24T01:41:44;3.60;;;3.30;;
35290;SDS011;21411;50.024;19.220;2023-06-24T01:44:29;5.10;;;4.30;;
35290;SDS011;21411;50.024;19.220;2023-06-24T01:46:57;6.50;;;4.20;;
35290;SDS011;21411;50.024;19.220;2023-06-24T01:49:25;6.20;;;5.20;;
35290;SDS011;21411;50.024;19.220;2023-06-24T01:51:56;6.80;;;5.50;;
35290;SDS011;21411;50.024;19.220;2023-06-24T01:54:24;8.30;;;5.50;;
35290;SDS011;21411;50.024;19.220;2023-06-24T01:56:54;5.80;;;5.30;;
35290;SDS011;21411;50.024;19.220;2023-06-24T01:59:23;5.70;;;5.20;;
35290;SDS011;21411;50.024;19.220;2023-06-24T02:01:53;5.10;;;4.50;;
35290;SDS011;21411;50.024;19.220;2023-06-24T02:04:20;4.50;;;3.90;;
35290;SDS011;21411;50.024;19.220;2023-06-24T02:06:47;4.30;;;3.90;;
35290;SDS011;21411;50.024;19.220;2023-06-24T02:09:14;5.80;;;4.00;;
35290;SDS011;21411;50.024;19.220;2023-06-24T02:11:44;4.60;;;3.90;;
35290;SDS011;21411;50.024;19.220;2023-06-24T02:14:12;6.30;;;4.50;;
35290;SDS011;21411;50.024;19.220;2023-06-24T02:16:42;5.80;;;4.10;;
35290;SDS011;21411;50.024;19.220;2023-06-24T02:19:10;6.00;;;5.20;;
35290;SDS011;21411;50.024;19.220;2023-06-24T02:21:39;7.80;;;6.00;;
35290;SDS011;21411;50.024;19.220;2023-06-24T02:24:07;7.50;;;5.40;;
35290;SDS011;21411;50.024;19.220;2023-06-24T02:26:34;5.20;;;4.70;;
35290;SDS011;21411;50.024;19.220;2023-06-24T02:29:09;7.00;;;4.50;;
35290;SDS011;21411;50.024;19.220;2023-06-24T02:31:38;4.30;;;3.90;;
35290;SDS011;21411;50.024;19.220;2023-06-24T02:34:05;4.30;;;4.00;;
35290;SDS011;21411;50.024;19.220;2023-06-24T02:36:32;4.20;;;3.80;;
35290;SDS011;21411;50.024;19.220;2023-06-24T02:38:59;9.00;;;4.10;;
35290;SDS011;21411;50.024;19.220;2023-06-24T02:41:25;6.80;;;4.20;;
35290;SDS011;21411;50.024;19.220;2023-06-24T02:43:52;4.10;;;3.80;;
35290;SDS011;21411;50.024;19.220;2023-06-24T02:46:19;5.00;;;4.60;;
35290;SDS011;21411;50.024;19.220;2023-06-24T02:48:46;5.10;;;4.60;;
35290;SDS011;21411;50.024;19.220;2023-06-24T02:51:14;6.60;;;4.60;;
35290;SDS011;21411;50.024;19.220;2023-06-24T02:53:41;7.30;;;5.20;;
35290;SDS011;21411;50.024;19.220;2023-06-24T02:56:09;5.70;;;5.20;;
35290;SDS011;21411;50.024;19.220;2023-06-24T02:58:36;5.60;;;5.10;;
35290;SDS011;21411;50.024;19.220;2023-06-24T03:01:04;6.00;;;4.70;;
35290;SDS011;21411;50.024;19.220;2023-06-24T03:03:33;6.50;;;4.80;;
35290;SDS011;21411;50.024;19.220;2023-06-24T03:06:01;5.10;;;4.60;;
35290;SDS011;21411;50.024;19.220;2023-06-24T03:08:28;5.40;;;4.90;;
35290;SDS011;21411;50.024;19.220;2023-06-24T03:10:56;4.90;;;4.50;;
35290;SDS011;21411;50.024;19.220;2023-06-24T03:13:23;4.90;;;4.50;;
35290;SDS011;21411;50.024;19.220;2023-06-24T03:15:50;4.90;;;4.40;;
35290;SDS011;21411;50.024;19.220;2023-06-24T03:18:17;5.80;;;4.30;;
35290;SDS011;21411;50.024;19.220;2023-06-24T03:20:44;5.30;;;4.80;;
35290;SDS011;21411;50.024;19.220;2023-06-24T03:23:11;5.50;;;5.00;;
35290;SDS011;21411;50.024;19.220;2023-06-24T03:25:38;4.70;;;4.30;;
35290;SDS011;21411;50.024;19.220;2023-06-24T03:28:04;6.50;;;4.30;;
35290;SDS011;21411;50.024;19.220;2023-06-24T03:30:33;4.90;;;4.40;;
35290;SDS011;21411;50.024;19.220;2023-06-24T03:33:00;5.90;;;5.10;;
35290;SDS011;21411;50.024;19.220;2023-06-24T03:35:26;5.40;;;4.90;;
35290;SDS011;21411;50.024;19.220;2023-06-24T03:37:53;6.10;;;4.50;;
35290;SDS011;21411;50.024;19.220;2023-06-24T03:40:19;5.10;;;4.70;;
35290;SDS011;21411;50.024;19.220;2023-06-24T03:42:46;5.40;;;4.90;;
35290;SDS011;21411;50.024;19.220;2023-06-24T03:45:12;5.30;;;4.80;;
35290;SDS011;21411;50.024;19.220;2023-06-24T03:47:39;5.40;;;4.90;;
35290;SDS011;21411;50.024;19.220;2023-06-24T03:50:05;5.10;;;4.50;;
35290;SDS011;21411;50.024;19.220;2023-06-24T03:52:32;5.40;;;4.90;;
35290;SDS011;21411;50.024;19.220;2023-06-24T03:54:59;6.20;;;4.90;;
35290;SDS011;21411;50.024;19.220;2023-06-24T03:57:27;5.20;;;4.80;;
35290;SDS011;21411;50.024;19.220;2023-06-24T03:59:54;5.60;;;5.20;;
35290;SDS011;21411;50.024;19.220;2023-06-24T04:02:21;6.30;;;4.80;;
35290;SDS011;21411;50.024;19.220;2023-06-24T04:04:47;5.30;;;4.40;;
35290;SDS011;21411;50.024;19.220;2023-06-24T04:07:17;6.00;;;5.20;;
35290;SDS011;21411;50.024;19.220;2023-06-24T04:09:54;4.90;;;4.40;;
35290;SDS011;21411;50.024;19.220;2023-06-24T04:12:21;5.90;;;4.70;;
35290;SDS011;21411;50.024;19.220;2023-06-24T04:14:48;5.40;;;4.90;;
35290;SDS011;21411;50.024;19.220;2023-06-24T04:17:14;5.20;;;4.80;;
35290;SDS011;21411;50.024;19.220;2023-06-24T04:19:41;5.40;;;5.00;;
35290;SDS011;21411;50.024;19.220;2023-06-24T04:22:08;6.20;;;5.70;;
35290;SDS011;21411;50.024;19.220;2023-06-24T04:24:34;5.70;;;5.20;;
35290;SDS011;21411;50.024;19.220;2023-06-24T04:27:01;5.70;;;5.20;;
35290;SDS011;21411;50.024;19.220;2023-06-24T04:29:27;7.60;;;5.30;;
35290;SDS011;21411;50.024;19.220;2023-06-24T04:31:54;6.20;;;5.10;;
35290;SDS011;21411;50.024;19.220;2023-06-24T04:34:20;6.40;;;5.80;;
35290;SDS011;21411;50.024;19.220;2023-06-24T04:36:47;7.30;;;5.90;;
35290;SDS011;21411;50.024;19.220;2023-06-24T04:39:13;10.30;;;5.80;;
35290;SDS011;21411;50.024;19.220;2023-06-24T04:41:40;8.00;;;7.30;;
35290;SDS011;21411;50.024;19.220;2023-06-24T04:44:06;8.20;;;7.50;;
35290;SDS011;21411;50.024;19.220;2023-06-24T04:46:33;8.50;;;7.50;;
35290;SDS011;21411;50.024;19.220;2023-06-24T04:49:00;8.50;;;7.40;;
35290;SDS011;21411;50.024;19.220;2023-06-24T04:51:27;7.90;;;7.20;;
35290;SDS011;21411;50.024;19.220;2023-06-24T04:53:53;8.60;;;7.80;;
35290;SDS011;21411;50.024;19.220;2023-06-24T04:56:21;9.00;;;7.30;;
35290;SDS011;21411;50.024;19.220;2023-06-24T04:58:48;9.90;;;8.90;;
35290;SDS011;21411;50.024;19.220;2023-06-24T05:01:14;9.50;;;8.60;;
35290;SDS011;21411;50.024;19.220;2023-06-24T05:03:41;10.90;;;9.70;;
35290;SDS011;21411;50.024;19.220;2023-06-24T05:06:07;11.40;;;10.20;;
35290;SDS011;21411;50.024;19.220;2023-06-24T05:08:34;11.70;;;10.50;;
35290;SDS011;21411;50.024;19.220;2023-06-24T05:11:00;11.70;;;10.60;;
35290;SDS011;21411;50.024;19.220;2023-06-24T05:13:27;12.70;;;11.40;;
35290;SDS011;21411;50.024;19.220;2023-06-24T05:15:54;13.30;;;12.00;;
35290;SDS011;21411;50.024;19.220;2023-06-24T05:18:20;13.80;;;12.30;;
35290;SDS011;21411;50.024;19.220;2023-06-24T05:20:46;15.90;;;13.30;;
35290;SDS011;21411;50.024;19.220;2023-06-24T05:23:13;16.10;;;14.00;;
35290;SDS011;21411;50.024;19.220;2023-06-24T05:25:39;15.50;;;14.10;;
35290;SDS011;21411;50.024;19.220;2023-06-24T05:28:06;15.50;;;13.90;;
35290;SDS011;21411;50.024;19.220;2023-06-24T05:30:32;15.30;;;13.70;;
35290;SDS011;21411;50.024;19.220;2023-06-24T05:32:59;16.40;;;14.70;;
35290;SDS011;21411;50.024;19.220;2023-06-24T05:35:25;15.40;;;13.70;;
35290;SDS011;21411;50.024;19.220;2023-06-24T05:37:52;16.00;;;14.40;;
35290;SDS011;21411;50.024;19.220;2023-06-24T05:40:18;14.90;;;12.60;;
35290;SDS011;21411;50.024;19.220;2023-06-24T05:42:45;15.70;;;13.00;;
35290;SDS011;21411;50.024;19.220;2023-06-24T05:45:11;16.20;;;12.70;;
35290;SDS011;21411;50.024;19.220;2023-06-24T05:47:38;15.30;;;13.20;;
35290;SDS011;21411;50.024;19.220;2023-06-24T05:50:04;14.60;;;13.00;;
35290;SDS011;21411;50.024;19.220;2023-06-24T05:52:31;15.30;;;13.30;;
35290;SDS011;21411;50.024;19.220;2023-06-24T05:54:58;16.40;;;14.30;;
35290;SDS011;21411;50.024;19.220;2023-06-24T05:57:24;17.90;;;15.40;;
35290;SDS011;21411;50.024;19.220;2023-06-24T05:59:51;18.10;;;15.30;;
35290;SDS011;21411;50.024;19.220;2023-06-24T06:02:17;19.60;;;16.80;;
35290;SDS011;21411;50.024;19.220;2023-06-24T06:04:44;17.60;;;15.70;;
35290;SDS011;21411;50.024;19.220;2023-06-24T06:07:10;18.60;;;16.70;;
35290;SDS011;21411;50.024;19.220;2023-06-24T06:09:37;21.20;;;17.00;;
35290;SDS011;21411;50.024;19.220;2023-06-24T06:12:03;18.20;;;16.40;;
35290;SDS011;21411;50.024;19.220;2023-06-24T06:14:30;21.70;;;17.20;;
35290;SDS011;21411;50.024;19.220;2023-06-24T06:16:57;20.60;;;17.80;;
35290;SDS011;21411;50.024;19.220;2023-06-24T06:19:23;21.10;;;17.40;;
35290;SDS011;21411;50.024;19.220;2023-06-24T06:21:50;19.30;;;17.20;;
35290;SDS011;21411;50.024;19.220;2023-06-24T06:24:17;21.50;;;18.10;;
35290;SDS011;21411;50.024;19.220;2023-06-24T06:26:44;21.80;;;17.50;;
35290;SDS011;21411;50.024;19.220;2023-06-24T06:29:11;22.50;;;18.90;;
35290;SDS011;21411;50.024;19.220;2023-06-24T06:31:38;23.60;;;19.50;;
35290;SDS011;21411;50.024;19.220;2023-06-24T06:34:05;21.80;;;19.40;;
35290;SDS011;21411;50.024;19.220;2023-06-24T06:36:31;25.20;;;19.40;;
35290;SDS011;21411;50.024;19.220;2023-06-24T06:38:58;21.70;;;19.30;;
35290;SDS011;21411;50.024;19.220;2023-06-24T06:41:24;26.20;;;19.90;;
35290;SDS011;21411;50.024;19.220;2023-06-24T06:43:51;23.70;;;21.00;;
35290;SDS011;21411;50.024;19.220;2023-06-24T06:46:18;24.70;;;21.30;;
35290;SDS011;21411;50.024;19.220;2023-06-24T06:48:46;29.80;;;24.70;;
35290;SDS011;21411;50.024;19.220;2023-06-24T06:51:12;28.80;;;23.90;;
35290;SDS011;21411;50.024;19.220;2023-06-24T06:53:39;29.10;;;24.60;;
35290;SDS011;21411;50.024;19.220;2023-06-24T06:56:05;27.80;;;24.70;;
35290;SDS011;21411;50.024;19.220;2023-06-24T06:58:32;27.60;;;24.70;;
35290;SDS011;21411;50.024;19.220;2023-06-24T07:00:59;30.30;;;24.80;;
35290;SDS011;21411;50.024;19.220;2023-06-24T07:03:27;28.60;;;25.40;;
35290;SDS011;21411;50.024;19.220;2023-06-24T07:05:54;27.10;;;23.40;;
35290;SDS011;21411;50.024;19.220;2023-06-24T07:08:20;25.80;;;21.60;;
35290;SDS011;21411;50.024;19.220;2023-06-24T07:10:47;26.20;;;22.60;;
35290;SDS011;21411;50.024;19.220;2023-06-24T07:13:13;24.20;;;21.50;;
35290;SDS011;21411;50.024;19.220;2023-06-24T07:15:40;26.00;;;21.80;;
35290;SDS011;21411;50.024;19.220;2023-06-24T07:18:06;20.90;;;18.70;;
35290;SDS011;21411;50.024;19.220;2023-06-24T07:20:33;25.90;;;20.10;;
35290;SDS011;21411;50.024;19.220;2023-06-24T07:22:59;25.30;;;19.60;;
35290;SDS011;21411;50.024;19.220;2023-06-24T07:25:26;22.50;;;19.20;;
35290;SDS011;21411;50.024;19.220;2023-06-24T07:27:54;21.00;;;18.00;;
35290;SDS011;21411;50.024;19.220;2023-06-24T07:30:21;19.60;;;17.70;;
35290;SDS011;21411;50.024;19.220;2023-06-24T07:32:47;17.70;;;16.00;;
35290;SDS011;21411;50.024;19.220;2023-06-24T07:35:14;17.40;;;15.30;;
35290;SDS011;21411;50.024;19.220;2023-06-24T07:37:41;17.60;;;15.50;;
35290;SDS011;21411;50.024;19.220;2023-06-24T07:40:08;15.40;;;13.70;;
35290;SDS011;21411;50.024;19.220;2023-06-24T07:42:35;14.80;;;12.60;;
35290;SDS011;21411;50.024;19.220;2023-06-24T07:45:01;13.70;;;12.40;;
35290;SDS011;21411;50.024;19.220;2023-06-24T07:47:29;12.20;;;11.00;;
35290;SDS011;21411;50.024;19.220;2023-06-24T07:49:55;11.70;;;10.50;;
35290;SDS011;21411;50.024;19.220;2023-06-24T07:52:22;11.70;;;10.60;;
35290;SDS011;21411;50.024;19.220;2023-06-24T07:54:48;11.60;;;10.50;;
35290;SDS011;21411;50.024;19.220;2023-06-24T07:57:15;12.00;;;10.80;;
35290;SDS011;21411;50.024;19.220;2023-06-24T07:59:42;12.00;;;10.90;;
35290;SDS011;21411;50.024;19.220;2023-06-24T08:02:09;12.10;;;10.40;;
35290;SDS011;21411;50.024;19.220;2023-06-24T08:04:35;11.70;;;10.10;;
35290;SDS011;21411;50.024;19.220;2023-06-24T08:07:02;12.40;;;11.20;;
35290;SDS011;21411;50.024;19.220;2023-06-24T08:09:29;11.90;;;10.70;;
35290;SDS011;21411;50.024;19.220;2023-06-24T08:11:56;11.00;;;10.00;;
35290;SDS011;21411;50.024;19.220;2023-06-24T08:14:22;11.60;;;10.40;;
35290;SDS011;21411;50.024;19.220;2023-06-24T08:16:49;10.80;;;9.70;;
35290;SDS011;21411;50.024;19.220;2023-06-24T08:19:15;12.60;;;10.20;;
35290;SDS011;21411;50.024;19.220;2023-06-24T08:21:42;10.80;;;9.90;;
35290;SDS011;21411;50.024;19.220;2023-06-24T08:24:08;10.70;;;9.60;;
35290;SDS011;21411;50.024;19.220;2023-06-24T08:26:35;10.10;;;9.10;;
35290;SDS011;21411;50.024;19.220;2023-06-24T08:29:01;10.90;;;9.80;;
35290;SDS011;21411;50.024;19.220;2023-06-24T08:31:28;10.30;;;9.30;;
35290;SDS011;21411;50.024;19.220;2023-06-24T08:33:54;10.50;;;9.50;;
35290;SDS011;21411;50.024;19.220;2023-06-24T08:36:26;9.90;;;8.90;;
35290;SDS011;21411;50.024;19.220;2023-06-24T08:38:54;10.10;;;9.20;;
35290;SDS011;21411;50.024;19.220;2023-06-24T08:41:20;9.90;;;9.00;;
35290;SDS011;21411;50.024;19.220;2023-06-24T08:43:48;9.80;;;8.80;;
35290;SDS011;21411;50.024;19.220;2023-06-24T08:46:15;8.80;;;7.90;;
35290;SDS011;21411;50.024;19.220;2023-06-24T08:48:44;8.90;;;8.10;;
35290;SDS011;21411;50.024;19.220;2023-06-24T08:51:11;8.70;;;7.90;;
35290;SDS011;21411;50.024;19.220;2023-06-24T08:53:42;8.70;;;7.80;;
35290;SDS011;21411;50.024;19.220;2023-06-24T08:56:10;11.20;;;8.50;;
35290;SDS011;21411;50.024;19.220;2023-06-24T08:58:37;8.80;;;7.20;;
35290;SDS011;21411;50.024;19.220;2023-06-24T09:01:04;12.80;;;7.70;;
35290;SDS011;21411;50.024;19.220;2023-06-24T09:03:32;8.90;;;8.00;;
35290;SDS011;21411;50.024;19.220;2023-06-24T09:05:59;8.20;;;7.40;;
35290;SDS011;21411;50.024;19.220;2023-06-24T09:08:25;7.90;;;7.20;;
35290;SDS011;21411;50.024;19.220;2023-06-24T09:10:53;10.70;;;7.60;;
35290;SDS011;21411;50.024;19.220;2023-06-24T09:13:21;9.40;;;7.50;;
35290;SDS011;21411;50.024;19.220;2023-06-24T09:15:59;8.10;;;7.40;;
35290;SDS011;21411;50.024;19.220;2023-06-24T09:18:32;7.10;;;6.50;;
35290;SDS011;21411;50.024;19.220;2023-06-24T09:20:58;7.90;;;7.10;;
35290;SDS011;21411;50.024;19.220;2023-06-24T09:23:27;7.90;;;7.20;;
35290;SDS011;21411;50.024;19.220;2023-06-24T09:25:56;8.40;;;7.50;;
35290;SDS011;21411;50.024;19.220;2023-06-24T09:28:26;7.50;;;6.60;;
35290;SDS011;21411;50.024;19.220;2023-06-24T09:31:09;8.40;;;7.00;;
35290;SDS011;21411;50.024;19.220;2023-06-24T09:33:36;7.50;;;6.80;;
35290;SDS011;21411;50.024;19.220;2023-06-24T09:36:02;7.40;;;6.70;;
35290;SDS011;21411;50.024;19.220;2023-06-24T09:38:36;8.00;;;6.70;;
35290;SDS011;21411;50.024;19.220;2023-06-24T09:41:05;8.00;;;7.30;;
35290;SDS011;21411;50.024;19.220;2023-06-24T09:43:35;7.90;;;6.90;;
35290;SDS011;21411;50.024;19.220;2023-06-24T09:46:03;8.40;;;7.00;;
35290;SDS011;21411;50.024;19.220;2023-06-24T09:48:30;7.90;;;7.10;;
35290;SDS011;21411;50.024;19.220;2023-06-24T09:51:02;8.00;;;7.30;;
35290;SDS011;21411;50.024;19.220;2023-06-24T09:53:30;10.60;;;6.90;;
35290;SDS011;21411;50.024;19.220;2023-06-24T09:55:59;7.60;;;6.80;;
35290;SDS011;21411;50.024;19.220;2023-06-24T09:58:28;7.70;;;7.10;;
35290;SDS011;21411;50.024;19.220;2023-06-24T10:01:01;7.70;;;7.00;;
35290;SDS011;21411;50.024;19.220;2023-06-24T10:03:29;7.90;;;6.60;;
35290;SDS011;21411;50.024;19.220;2023-06-24T10:05:59;8.20;;;7.40;;
35290;SDS011;21411;50.024;19.220;2023-06-24T10:08:27;8.30;;;7.40;;
35290;SDS011;21411;50.024;19.220;2023-06-24T10:10:56;8.50;;;6.90;;
35290;SDS011;21411;50.024;19.220;2023-06-24T10:13:23;9.20;;;7.40;;
35290;SDS011;21411;50.024;19.220;2023-06-24T10:15:50;8.80;;;7.60;;
35290;SDS011;21411;50.024;19.220;2023-06-24T10:18:32;10.30;;;8.40;;
35290;SDS011;21411;50.024;19.220;2023-06-24T10:21:00;9.70;;;7.00;;
35290;SDS011;21411;50.024;19.220;2023-06-24T10:23:36;8.00;;;7.10;;
35290;SDS011;21411;50.024;19.220;2023-06-24T10:26:10;8.30;;;7.40;;
35290;SDS011;21411;50.024;19.220;2023-06-24T10:31:52;8.90;;;8.10;;
35290;SDS011;21411;50.024;19.220;2023-06-24T10:47:37;9.60;;;8.60;;
35290;SDS011;21411;50.024;19.220;2023-06-24T10:50:08;9.20;;;8.30;;
35290;SDS011;21411;50.024;19.220;2023-06-24T10:52:40;9.10;;;8.30;;
35290;SDS011;21411;50.024;19.220;2023-06-24T10:55:14;9.30;;;8.50;;
35290;SDS011;21411;50.024;19.220;2023-06-24T10:57:42;9.40;;;8.50;;
35290;SDS011;21411;50.024;19.220;2023-06-24T11:00:10;9.70;;;8.70;;
35290;SDS011;21411;50.024;19.220;2023-06-24T11:02:38;8.90;;;8.20;;
35290;SDS011;21411;50.024;19.220;2023-06-24T11:05:05;11.70;;;8.70;;
35290;SDS011;21411;50.024;19.220;2023-06-24T11:07:32;10.60;;;8.70;;
35290;SDS011;21411;50.024;19.220;2023-06-24T11:10:05;12.80;;;8.60;;
35290;SDS011;21411;50.024;19.220;2023-06-24T11:12:35;9.50;;;8.50;;
35290;SDS011;21411;50.024;19.220;2023-06-24T11:15:04;9.50;;;8.60;;
35290;SDS011;21411;50.024;19.220;2023-06-24T11:17:32;8.50;;;7.60;;
35290;SDS011;21411;50.024;19.220;2023-06-24T11:20:00;9.10;;;8.20;;
35290;SDS011;21411;50.024;19.220;2023-06-24T11:22:28;9.30;;;8.40;;
35290;SDS011;21411;50.024;19.220;2023-06-24T11:24:55;8.90;;;8.00;;
35290;SDS011;21411;50.024;19.220;2023-06-24T11:27:29;9.40;;;8.40;;
35290;SDS011;21411;50.024;19.220;2023-06-24T11:29:57;8.60;;;7.80;;
35290;SDS011;21411;50.024;19.220;2023-06-24T11:32:34;9.00;;;8.10;;
35290;SDS011;21411;50.024;19.220;2023-06-24T11:35:10;8.50;;;7.70;;
35290;SDS011;21411;50.024;19.220;2023-06-24T11:37:42;8.90;;;8.10;;
35290;SDS011;21411;50.024;19.220;2023-06-24T11:40:10;9.40;;;8.10;;
35290;SDS011;21411;50.024;19.220;2023-06-24T11:42:40;8.30;;;7.40;;
35290;SDS011;21411;50.024;19.220;2023-06-24T11:45:11;8.70;;;7.80;;
35290;SDS011;21411;50.024;19.220;2023-06-24T11:47:38;10.30;;;8.10;;
35290;SDS011;21411;50.024;19.220;2023-06-24T11:50:06;10.80;;;9.70;;
35290;SDS011;21411;50.024;19.220;2023-06-24T11:52:38;9.40;;;8.50;;
35290;SDS011;21411;50.024;19.220;2023-06-24T11:55:13;10.50;;;9.00;;
35290;SDS011;21411;50.024;19.220;2023-06-24T12:00:21;9.80;;;8.90;;
35290;SDS011;21411;50.024;19.220;2023-06-24T12:02:52;9.30;;;8.40;;
35290;SDS011;21411;50.024;19.220;2023-06-24T12:05:24;10.80;;;9.70;;
35290;SDS011;21411;50.024;19.220;2023-06-24T12:07:56;12.70;;;11.30;;
35290;SDS011;21411;50.024;19.220;2023-06-24T12:10:23;11.60;;;10.50;;
35290;SDS011;21411;50.024;19.220;2023-06-24T12:12:50;10.70;;;9.70;;
35290;SDS011;21411;50.024;19.220;2023-06-24T12:15:18;18.90;;;16.90;;
35290;SDS011;21411;50.024;19.220;2023-06-24T12:17:44;12.10;;;10.60;;
35290;SDS011;21411;50.024;19.220;2023-06-24T12:20:11;11.30;;;10.20;;
35290;SDS011;21411;50.024;19.220;2023-06-24T12:22:40;11.20;;;10.20;;
35290;SDS011;21411;50.024;19.220;2023-06-24T12:25:09;14.20;;;12.80;;
35290;SDS011;21411;50.024;19.220;2023-06-24T12:27:36;11.20;;;9.40;;
35290;SDS011;21411;50.024;19.220;2023-06-24T12:30:04;12.90;;;11.70;;
35290;SDS011;21411;50.024;19.220;2023-06-24T12:32:31;9.50;;;8.70;;
35290;SDS011;21411;50.024;19.220;2023-06-24T12:34:57;9.80;;;8.80;;
35290;SDS011;21411;50.024;19.220;2023-06-24T12:37:23;9.90;;;8.90;;
35290;SDS011;21411;50.024;19.220;2023-06-24T12:39:50;10.40;;;8.60;;
35290;SDS011;21411;50.024;19.220;2023-06-24T12:42:18;9.60;;;8.70;;
35290;SDS011;21411;50.024;19.220;2023-06-24T12:44:44;8.30;;;7.60;;
35290;SDS011;21411;50.024;19.220;2023-06-24T12:47:11;8.80;;;8.00;;
35290;SDS011;21411;50.024;19.220;2023-06-24T12:49:37;10.00;;;8.90;;
35290;SDS011;21411;50.024;19.220;2023-06-24T12:52:04;9.30;;;8.50;;
35290;SDS011;21411;50.024;19.220;2023-06-24T12:54:30;11.70;;;9.60;;
35290;SDS011;21411;50.024;19.220;2023-06-24T12:56:57;11.60;;;9.80;;
35290;SDS011;21411;50.024;19.220;2023-06-24T12:59:24;12.20;;;10.60;;
35290;SDS011;21411;50.024;19.220;2023-06-24T13:01:50;19.80;;;12.70;;
35290;SDS011;21411;50.024;19.220;2023-06-24T13:04:17;13.10;;;10.20;;
35290;SDS011;21411;50.024;19.220;2023-06-24T13:06:46;11.40;;;10.10;;
35290;SDS011;21411;50.024;19.220;2023-06-24T13:09:12;13.20;;;12.00;;
35290;SDS011;21411;50.024;19.220;2023-06-24T13:11:39;10.90;;;9.90;;
35290;SDS011;21411;50.024;19.220;2023-06-24T13:14:06;10.70;;;9.30;;
35290;SDS011;21411;50.024;19.220;2023-06-24T13:16:33;10.90;;;9.90;;
35290;SDS011;21411;50.024;19.220;2023-06-24T13:18:59;11.80;;;10.70;;
35290;SDS011;21411;50.024;19.220;2023-06-24T13:21:26;12.10;;;10.80;;
35290;SDS011;21411;50.024;19.220;2023-06-24T13:23:52;11.60;;;10.50;;
35290;SDS011;21411;50.024;19.220;2023-06-24T13:26:19;11.40;;;10.30;;
35290;SDS011;21411;50.024;19.220;2023-06-24T13:28:45;11.20;;;10.00;;
35290;SDS011;21411;50.024;19.220;2023-06-24T13:31:12;10.70;;;9.50;;
35290;SDS011;21411;50.024;19.220;2023-06-24T13:33:38;13.20;;;11.90;;
35290;SDS011;21411;50.024;19.220;2023-06-24T13:36:05;11.10;;;9.80;;
35290;SDS011;21411;50.024;19.220;2023-06-24T13:38:33;14.80;;;10.60;;
35290;SDS011;21411;50.024;19.220;2023-06-24T13:41:00;11.40;;;9.90;;
35290;SDS011;21411;50.024;19.220;2023-06-24T13:43:26;11.60;;;10.10;;
35290;SDS011;21411;50.024;19.220;2023-06-24T13:45:53;11.50;;;10.40;;
35290;SDS011;21411;50.024;19.220;2023-06-24T13:48:19;9.80;;;8.60;;
35290;SDS011;21411;50.024;19.220;2023-06-24T13:50:46;10.10;;;8.70;;
35290;SDS011;21411;50.024;19.220;2023-06-24T13:53:12;8.80;;;8.00;;
35290;SDS011;21411;50.024;19.220;2023-06-24T13:55:39;10.70;;;8.50;;
35290;SDS011;21411;50.024;19.220;2023-06-24T13:58:05;11.20;;;9.00;;
35290;SDS011;21411;50.024;19.220;2023-06-24T14:00:32;8.10;;;7.10;;
35290;SDS011;21411;50.024;19.220;2023-06-24T14:02:58;8.30;;;7.50;;
35290;SDS011;21411;50.024;19.220;2023-06-24T14:05:26;8.90;;;7.70;;
35290;SDS011;21411;50.024;19.220;2023-06-24T14:07:52;18.80;;;14.00;;
35290;SDS011;21411;50.024;19.220;2023-06-24T14:10:19;10.40;;;8.80;;
35290;SDS011;21411;50.024;19.220;2023-06-24T14:12:45;9.00;;;8.10;;
35290;SDS011;21411;50.024;19.220;2023-06-24T14:15:11;9.30;;;8.40;;
35290;SDS011;21411;50.024;19.220;2023-06-24T14:17:38;12.40;;;9.10;;
35290;SDS011;21411;50.024;19.220;2023-06-24T14:20:05;18.00;;;11.30;;
35290;SDS011;21411;50.024;19.220;2023-06-24T14:22:32;17.20;;;15.50;;
35290;SDS011;21411;50.024;19.220;2023-06-24T14:24:58;11.60;;;10.40;;
35290;SDS011;21411;50.024;19.220;2023-06-24T14:27:25;10.50;;;8.90;;
35290;SDS011;21411;50.024;19.220;2023-06-24T14:29:51;9.80;;;8.70;;
35290;SDS011;21411;50.024;19.220;2023-06-24T14:32:18;10.30;;;8.00;;
35290;SDS011;21411;50.024;19.220;2023-06-24T14:34:44;9.70;;;8.70;;
35290;SDS011;21411;50.024;19.220;2023-06-24T14:37:11;9.40;;;8.40;;
35290;SDS011;21411;50.024;19.220;2023-06-24T14:39:38;10.10;;;8.90;;
35290;SDS011;21411;50.024;19.220;2023-06-24T14:42:06;9.90;;;8.90;;
35290;SDS011;21411;50.024;19.220;2023-06-24T14:44:32;9.30;;;8.10;;
35290;SDS011;21411;50.024;19.220;2023-06-24T14:46:59;9.20;;;8.10;;
35290;SDS011;21411;50.024;19.220;2023-06-24T14:49:25;8.50;;;7.70;;
35290;SDS011;21411;50.024;19.220;2023-06-24T14:51:52;9.20;;;8.10;;
35290;SDS011;21411;50.024;19.220;2023-06-24T14:54:18;9.20;;;8.30;;
35290;SDS011;21411;50.024;19.220;2023-06-24T14:56:45;9.70;;;8.70;;
35290;SDS011;21411;50.024;19.220;2023-06-24T14:59:13;9.20;;;8.00;;